Time;durP1;ratioP1;P1;durP2;ratioP2;P2;SDS_P1;SDS_P2;PMS_P1;PMS_P2;Temp;Humidity;BMP_temperature;BMP_pressure;BME280_temperature;BME280_humidity;BME280_pressure;Samples;Min_cycle;Max_cycle;Signal;HPM_P1;HPM_P2
2022/09/16 00:01:13;;;;;;;0.35;0.30;;;13.60;99.90;;;;;;5052820;28;20274;-58
2022/09/16 00:03:39;;;;;;;0.30;0.30;;;13.60;99.90;;;;;;5052598;28;20199;-58
2022/09/16 00:06:06;;;;;;;0.85;0.10;;;13.50;99.90;;;;;;5052531;28;20252;-59
2022/09/16 00:08:32;;;;;;;0.10;0.10;;;13.50;99.90;;;;;;5034658;28;20176;-58
2022/09/16 00:11:02;;;;;;;0.20;0.20;;;13.50;99.90;;;;;;5051320;28;20199;-59
2022/09/16 00:13:28;;;;;;;0.47;0.25;;;13.40;99.90;;;;;;5055543;28;20179;-59
2022/09/16 00:15:54;;;;;;;1.40;0.45;;;13.40;99.90;;;;;;5056411;28;20191;-58
2022/09/16 00:18:20;;;;;;;0.32;0.20;;;13.30;99.90;;;;;;5056102;28;20174;-59
2022/09/16 00:20:50;;;;;;;0.20;0.20;;;13.30;99.90;;;;;;5054856;28;20636;-59
2022/09/16 00:23:18;;;;;;;0.00;0.00;;;13.30;99.90;;;;;;5056128;28;20175;-59
2022/09/16 00:25:43;;;;;;;0.10;0.10;;;13.20;99.90;;;;;;5054742;28;20187;-59
2022/09/16 00:28:09;;;;;;;0.13;0.10;;;13.20;99.90;;;;;;5055158;28;20190;-59
2022/09/16 00:30:35;;;;;;;0.10;0.10;;;13.10;99.90;;;;;;5055837;28;20255;-59
2022/09/16 00:33:01;;;;;;;0.28;0.20;;;13.10;99.90;;;;;;5055834;28;20251;-59
2022/09/16 00:35:27;;;;;;;0.17;0.17;;;13.10;99.90;;;;;;5055630;28;20207;-59
2022/09/16 00:37:52;;;;;;;0.30;0.30;;;13.10;99.90;;;;;;5054406;28;20176;-58
2022/09/16 00:40:18;;;;;;;0.32;0.20;;;13.10;99.90;;;;;;5055624;28;20233;-58
2022/09/16 00:42:44;;;;;;;0.40;0.30;;;13.20;99.90;;;;;;5055468;28;20179;-58
2022/09/16 00:45:19;;;;;;;0.30;0.10;;;13.20;99.90;;;;;;5054018;28;20218;-59
2022/09/16 00:48:13;;;;;;;0.20;0.20;;;13.20;99.90;;;;;;5055782;28;20186;-58
2022/09/16 00:50:55;;;;;;;0.20;0.20;;;13.30;99.90;;;;;;5053359;28;20270;-59
2022/09/16 00:53:28;;;;;;;0.40;0.40;;;13.40;99.90;;;;;;5055587;28;20187;-58
2022/09/16 00:55:56;;;;;;;0.40;0.40;;;13.40;99.90;;;;;;5055737;28;20175;-58
2022/09/16 00:58:28;;;;;;;0.30;0.30;;;13.40;99.90;;;;;;5055419;28;20225;-59
2022/09/16 01:00:53;;;;;;;0.22;0.22;;;13.50;99.90;;;;;;5055289;28;20172;-58
2022/09/16 01:03:20;;;;;;;0.30;0.30;;;13.50;99.90;;;;;;5055008;28;20190;-59
2022/09/16 01:05:46;;;;;;;0.20;0.20;;;13.50;99.90;;;;;;5055286;28;20175;-58
2022/09/16 01:08:12;;;;;;;0.35;0.30;;;13.60;99.90;;;;;;5055514;28;20195;-58
2022/09/16 01:10:41;;;;;;;0.65;0.30;;;13.60;99.90;;;;;;5055118;28;20217;-59
2022/09/16 01:13:10;;;;;;;0.40;0.40;;;13.60;99.90;;;;;;5055150;28;20258;-59
2022/09/16 01:15:40;;;;;;;0.20;0.20;;;13.60;99.90;;;;;;5055125;28;20194;-59
2022/09/16 01:18:22;;;;;;;0.40;0.40;;;13.60;99.90;;;;;;5055136;28;20172;-59
2022/09/16 01:21:17;;;;;;;0.25;0.25;;;13.70;99.90;;;;;;5054962;28;20183;-59
2022/09/16 01:24:17;;;;;;;0.30;0.30;;;13.70;99.90;;;;;;5053906;28;20202;-58
2022/09/16 01:26:58;;;;;;;0.40;0.40;;;13.80;99.90;;;;;;5043049;28;20214;-59
2022/09/16 01:29:42;;;;;;;0.68;0.30;;;13.90;99.90;;;;;;5054940;28;20644;-59
2022/09/16 01:32:31;;;;;;;0.98;0.40;;;13.80;99.90;;;;;;5054742;28;20178;-59
2022/09/16 01:35:05;;;;;;;0.20;0.20;;;13.70;99.90;;;;;;5054765;28;20227;-59
2022/09/16 01:37:37;;;;;;;0.68;0.40;;;13.70;99.90;;;;;;5055246;28;20171;-59
2022/09/16 01:40:16;;;;;;;0.30;0.30;;;13.70;99.90;;;;;;5054694;28;20175;-59
2022/09/16 01:43:05;;;;;;;0.85;0.20;;;13.70;99.90;;;;;;5054484;28;20170;-58
2022/09/16 01:45:52;;;;;;;0.75;0.30;;;13.70;99.90;;;;;;5054313;28;20684;-59
2022/09/16 01:48:26;;;;;;;0.35;0.30;;;13.70;99.90;;;;;;5054414;28;20175;-59
2022/09/16 01:51:16;;;;;;;0.50;0.20;;;13.70;99.90;;;;;;5054275;28;20171;-59
2022/09/16 01:53:48;;;;;;;0.20;0.20;;;13.70;99.90;;;;;;5054494;28;20171;-58
2022/09/16 01:56:29;;;;;;;0.93;0.30;;;13.70;99.90;;;;;;5054454;28;20171;-59
2022/09/16 01:59:35;;;;;;;0.25;0.13;;;13.70;99.90;;;;;;5054324;28;20167;-59
2022/09/16 02:02:14;;;;;;;0.20;0.20;;;13.60;99.90;;;;;;5054301;28;20190;-59
2022/09/16 02:04:47;;;;;;;0.40;0.25;;;13.60;99.90;;;;;;5054096;28;20195;-59
2022/09/16 02:07:16;;;;;;;1.02;0.22;;;13.60;99.90;;;;;;5054117;28;20174;-59
2022/09/16 02:09:48;;;;;;;0.30;0.30;;;13.40;99.90;;;;;;5053869;28;20254;-59
2022/09/16 02:12:20;;;;;;;0.30;0.20;;;13.40;99.90;;;;;;5054123;28;20163;-59
2022/09/16 02:14:48;;;;;;;0.10;0.10;;;13.40;99.90;;;;;;5053836;28;20194;-59
2022/09/16 02:17:17;;;;;;;0.20;0.20;;;13.40;99.90;;;;;;5053861;28;20167;-60
2022/09/16 02:20:02;;;;;;;0.25;0.17;;;13.40;99.90;;;;;;5053652;28;20524;-58
2022/09/16 02:22:38;;;;;;;0.40;0.40;;;13.40;99.90;;;;;;5053758;28;20523;-59
2022/09/16 02:25:08;;;;;;;0.43;0.43;;;13.40;99.90;;;;;;5053832;28;20207;-59
2022/09/16 02:27:36;;;;;;;0.30;0.30;;;13.40;99.90;;;;;;5053734;28;20258;-59
2022/09/16 02:30:07;;;;;;;0.22;0.22;;;13.40;99.90;;;;;;5053510;28;20648;-59
2022/09/16 02:32:36;;;;;;;0.30;0.30;;;13.50;99.90;;;;;;5053577;28;20178;-59
2022/09/16 02:35:05;;;;;;;0.40;0.40;;;13.40;99.90;;;;;;5053241;28;20173;-59
2022/09/16 02:37:49;;;;;;;0.22;0.22;;;13.30;99.90;;;;;;5053674;28;20172;-59
2022/09/16 02:40:30;;;;;;;0.38;0.38;;;13.40;99.90;;;;;;5053587;28;20246;-59
2022/09/16 02:42:57;;;;;;;0.82;0.20;;;13.30;99.90;;;;;;5053604;28;20195;-59
2022/09/16 02:45:30;;;;;;;1.70;0.52;;;13.30;99.90;;;;;;5053524;28;20693;-58
2022/09/16 02:48:02;;;;;;;0.30;0.30;;;13.10;99.90;;;;;;5053845;28;20611;-59
2022/09/16 02:51:03;;;;;;;0.10;0.10;;;13.10;99.90;;;;;;5053457;28;20258;-59
2022/09/16 02:53:34;;;;;;;0.50;0.30;;;13.00;99.90;;;;;;5051791;28;20191;-59
2022/09/16 02:56:06;;;;;;;0.82;0.40;;;13.00;99.90;;;;;;5052096;28;20179;-59
2022/09/16 02:58:32;;;;;;;0.32;0.20;;;13.00;99.90;;;;;;5053401;28;20175;-58
2022/09/16 03:00:58;;;;;;;0.30;0.30;;;13.00;99.90;;;;;;5053143;28;20575;-58
2022/09/16 03:03:24;;;;;;;0.28;0.28;;;13.10;99.90;;;;;;5053103;28;20656;-59
2022/09/16 03:06:12;;;;;;;0.10;0.10;;;13.00;99.90;;;;;;5053031;28;20184;-59
2022/09/16 03:08:38;;;;;;;0.57;0.30;;;13.10;99.90;;;;;;5053302;28;20175;-59
2022/09/16 03:11:28;;;;;;;0.13;0.13;;;13.10;99.90;;;;;;5053275;28;20198;-59
2022/09/16 03:14:26;;;;;;;0.17;0.17;;;13.10;99.90;;;;;;5053139;28;20595;-58
2022/09/16 03:17:07;;;;;;;0.65;0.20;;;13.00;99.90;;;;;;5053407;28;20253;-59
2022/09/16 03:20:00;;;;;;;0.10;0.10;;;13.10;99.90;;;;;;5053183;28;20254;-59
2022/09/16 03:22:47;;;;;;;0.40;0.28;;;13.10;99.90;;;;;;5053159;28;20540;-59
2022/09/16 03:26:01;;;;;;;0.22;0.20;;;13.10;99.90;;;;;;5053137;28;20210;-59
2022/09/16 03:28:37;;;;;;;0.10;0.10;;;13.00;99.90;;;;;;5050852;28;20233;-59
2022/09/16 03:31:25;;;;;;;0.28;0.28;;;13.00;99.90;;;;;;5052889;28;20167;-59
2022/09/16 03:34:03;;;;;;;0.50;0.13;;;13.10;99.90;;;;;;5053095;28;20179;-59
2022/09/16 03:36:33;;;;;;;0.10;0.10;;;13.10;99.90;;;;;;5052784;28;20175;-58
2022/09/16 03:39:01;;;;;;;0.32;0.10;;;13.10;99.90;;;;;;5051595;28;20258;-59
2022/09/16 03:41:30;;;;;;;0.90;0.15;;;13.10;99.90;;;;;;5052675;28;20179;-59
2022/09/16 03:43:57;;;;;;;0.10;0.10;;;13.10;99.90;;;;;;5052910;28;20223;-59
2022/09/16 03:46:25;;;;;;;0.65;0.40;;;13.10;99.90;;;;;;5052873;28;20171;-59
2022/09/16 03:48:51;;;;;;;0.30;0.30;;;13.20;99.90;;;;;;5056506;28;20221;-59
2022/09/16 03:51:17;;;;;;;0.52;0.13;;;13.20;99.90;;;;;;5056471;28;20528;-58
2022/09/16 03:53:43;;;;;;;0.10;0.10;;;13.20;99.90;;;;;;5056498;28;20624;-58
2022/09/16 03:56:08;;;;;;;0.13;0.13;;;13.20;99.90;;;;;;5056389;28;20194;-58
2022/09/16 03:58:35;;;;;;;0.20;0.20;;;13.20;99.90;;;;;;5056405;28;20172;-59
2022/09/16 04:01:00;;;;;;;0.22;0.13;;;13.20;99.90;;;;;;5056353;28;20187;-59
2022/09/16 04:03:26;;;;;;;0.20;0.20;;;13.20;99.90;;;;;;5056608;28;20182;-59
2022/09/16 04:05:52;;;;;;;0.50;0.30;;;13.30;99.90;;;;;;5056358;28;20274;-59
2022/09/16 04:08:18;;;;;;;0.38;0.38;;;13.20;99.90;;;;;;5056265;28;20229;-58
2022/09/16 04:10:58;;;;;;;0.22;0.22;;;13.20;99.90;;;;;;5056129;28;20183;-58
2022/09/16 04:13:24;;;;;;;0.20;0.20;;;13.20;99.90;;;;;;5056327;28;20171;-59
2022/09/16 04:15:50;;;;;;;0.63;0.20;;;13.30;99.90;;;;;;5056322;28;20745;-59
2022/09/16 04:18:17;;;;;;;0.10;0.10;;;13.10;99.90;;;;;;5054855;28;20214;-59
2022/09/16 04:20:43;;;;;;;0.20;0.20;;;13.20;99.90;;;;;;5056054;28;20190;-59
2022/09/16 04:23:08;;;;;;;0.20;0.20;;;13.20;99.90;;;;;;5055905;28;20175;-58
2022/09/16 04:25:34;;;;;;;0.20;0.20;;;13.20;99.90;;;;;;5056081;28;20222;-59
2022/09/16 04:28:00;;;;;;;0.20;0.20;;;13.00;99.90;;;;;;5056104;28;20199;-59
2022/09/16 04:30:26;;;;;;;0.32;0.32;;;13.00;99.90;;;;;;5055882;28;20233;-59
2022/09/16 04:32:53;;;;;;;0.17;0.17;;;13.10;99.90;;;;;;5054830;28;20639;-59
2022/09/16 04:35:19;;;;;;;0.30;0.30;;;13.10;99.90;;;;;;5055833;28;20660;-58
2022/09/16 04:37:45;;;;;;;0.10;0.10;;;13.10;99.90;;;;;;5055619;28;20175;-59
2022/09/16 04:40:11;;;;;;;0.50;0.20;;;13.10;99.90;;;;;;5055506;28;20613;-59
2022/09/16 04:42:37;;;;;;;0.60;0.20;;;13.00;99.90;;;;;;5055474;28;20306;-59
2022/09/16 04:45:03;;;;;;;0.10;0.10;;;13.10;99.90;;;;;;5055570;28;20223;-59
2022/09/16 04:47:29;;;;;;;0.40;0.28;;;13.20;99.90;;;;;;5055395;28;20179;-58
2022/09/16 04:49:54;;;;;;;1.35;0.20;;;13.20;99.90;;;;;;5054222;28;20237;-58
2022/09/16 04:52:20;;;;;;;0.20;0.20;;;13.10;99.90;;;;;;5055313;28;20180;-59
2022/09/16 04:54:46;;;;;;;0.10;0.10;;;13.20;99.90;;;;;;5055814;28;20171;-59
2022/09/16 04:57:11;;;;;;;0.85;0.35;;;13.20;99.90;;;;;;5055536;28;20542;-59
2022/09/16 04:59:37;;;;;;;0.80;0.40;;;13.20;99.90;;;;;;5055653;28;20687;-59
2022/09/16 05:02:03;;;;;;;3.65;0.50;;;13.10;99.90;;;;;;5054505;28;20612;-58
2022/09/16 05:04:28;;;;;;;0.20;0.20;;;13.10;99.90;;;;;;5053586;28;20604;-58
2022/09/16 05:06:54;;;;;;;0.30;0.30;;;13.10;99.90;;;;;;5055093;28;20210;-58
2022/09/16 05:09:21;;;;;;;0.32;0.20;;;13.10;99.90;;;;;;5055334;28;20261;-58
2022/09/16 05:11:48;;;;;;;0.95;0.30;;;13.10;99.90;;;;;;5055162;28;20226;-58
2022/09/16 05:14:16;;;;;;;0.50;0.22;;;13.10;99.90;;;;;;5055053;28;20582;-58
2022/09/16 05:16:43;;;;;;;1.17;0.25;;;13.20;99.90;;;;;;5053951;28;20172;-58
2022/09/16 05:19:13;;;;;;;0.10;0.10;;;13.20;99.90;;;;;;5054940;28;20282;-59
2022/09/16 05:21:39;;;;;;;0.55;0.40;;;13.10;99.90;;;;;;5055104;28;20254;-58
2022/09/16 05:24:08;;;;;;;0.00;0.00;;;13.10;99.90;;;;;;5054875;28;20211;-58
2022/09/16 05:26:35;;;;;;;0.32;0.10;;;13.10;99.90;;;;;;5054751;28;20624;-61
2022/09/16 05:29:03;;;;;;;0.10;0.10;;;13.10;99.90;;;;;;5054778;28;20254;-59
2022/09/16 05:31:31;;;;;;;0.15;0.15;;;13.10;99.90;;;;;;5054673;28;20242;-59
2022/09/16 05:34:01;;;;;;;0.28;0.22;;;13.10;99.90;;;;;;5054560;28;20179;-59
2022/09/16 05:36:29;;;;;;;0.10;0.10;;;13.10;99.90;;;;;;5054858;28;20629;-58
2022/09/16 05:38:55;;;;;;;0.10;0.10;;;13.10;99.90;;;;;;5054621;28;20180;-58
2022/09/16 05:41:21;;;;;;;0.20;0.20;;;13.20;99.90;;;;;;5054516;28;20202;-58
2022/09/16 05:43:47;;;;;;;0.20;0.20;;;13.20;99.90;;;;;;5052928;28;20179;-58
2022/09/16 05:46:19;;;;;;;0.20;0.10;;;13.20;99.90;;;;;;5054454;28;20171;-58
2022/09/16 05:48:45;;;;;;;0.30;0.20;;;13.20;99.90;;;;;;5054215;28;20225;-58
2022/09/16 05:51:14;;;;;;;0.55;0.08;;;13.20;99.90;;;;;;5054554;28;20167;-59
2022/09/16 05:53:39;;;;;;;0.10;0.10;;;13.20;99.90;;;;;;5054393;28;20167;-59
2022/09/16 05:56:09;;;;;;;0.20;0.20;;;13.10;99.90;;;;;;5054350;28;20167;-60
2022/09/16 05:58:35;;;;;;;0.10;0.10;;;13.10;99.90;;;;;;5054280;28;20167;-59
2022/09/16 06:01:13;;;;;;;0.13;0.13;;;13.20;99.90;;;;;;5054136;28;20294;-60
2022/09/16 06:03:41;;;;;;;0.20;0.20;;;13.20;99.90;;;;;;5054111;28;20643;-58
2022/09/16 06:06:11;;;;;;;0.20;0.20;;;13.20;99.90;;;;;;5054011;28;20701;-58
2022/09/16 06:08:38;;;;;;;0.20;0.20;;;13.20;99.90;;;;;;5054226;28;20571;-58
2022/09/16 06:11:06;;;;;;;0.05;0.05;;;13.20;99.90;;;;;;5053891;28;20171;-59
2022/09/16 06:13:32;;;;;;;1.05;0.30;;;13.30;99.90;;;;;;5051228;28;20513;-58
2022/09/16 06:15:58;;;;;;;0.35;0.20;;;13.30;99.90;;;;;;5054212;28;20605;-59
2022/09/16 06:18:26;;;;;;;0.35;0.35;;;13.30;99.90;;;;;;5053924;28;20241;-59
2022/09/16 06:20:51;;;;;;;0.15;0.13;;;13.30;99.90;;;;;;5054105;28;20170;-59
2022/09/16 06:23:17;;;;;;;0.40;0.38;;;13.30;99.90;;;;;;5053700;28;20546;-58
2022/09/16 06:25:44;;;;;;;0.25;0.22;;;13.30;99.90;;;;;;5053034;28;20219;-59
2022/09/16 06:28:10;;;;;;;0.13;0.13;;;13.20;99.90;;;;;;5053490;28;20217;-58
2022/09/16 06:30:37;;;;;;;0.40;0.40;;;13.20;99.90;;;;;;5052302;28;20179;-58
2022/09/16 06:33:03;;;;;;;0.30;0.30;;;13.10;99.90;;;;;;5051691;28;20166;-59
2022/09/16 06:35:29;;;;;;;0.20;0.20;;;13.20;99.90;;;;;;5053726;28;20185;-59
2022/09/16 06:37:55;;;;;;;0.32;0.32;;;13.20;99.90;;;;;;5053634;28;20621;-59
2022/09/16 06:40:20;;;;;;;0.63;0.55;;;13.20;99.90;;;;;;5052947;28;20171;-58
2022/09/16 06:42:46;;;;;;;0.38;0.38;;;13.30;99.90;;;;;;5052072;28;20225;-58
2022/09/16 06:45:12;;;;;;;0.30;0.30;;;13.40;99.90;;;;;;5052707;28;20233;-58
2022/09/16 06:47:38;;;;;;;0.20;0.20;;;13.40;99.90;;;;;;5053516;28;20171;-58
2022/09/16 06:50:04;;;;;;;0.30;0.30;;;13.40;99.90;;;;;;5053216;28;20175;-58
2022/09/16 06:52:30;;;;;;;0.28;0.20;;;13.40;99.90;;;;;;5053147;28;20167;-59
2022/09/16 06:54:56;;;;;;;0.15;0.15;;;13.40;99.90;;;;;;5053390;28;20232;-59
2022/09/16 06:57:22;;;;;;;0.30;0.30;;;13.40;99.90;;;;;;5053212;28;20575;-60
2022/09/16 06:59:52;;;;;;;0.20;0.20;;;13.50;99.90;;;;;;5052223;28;20198;-58
2022/09/16 07:02:18;;;;;;;1.63;0.40;;;13.40;99.90;;;;;;5053021;28;20521;-59
2022/09/16 07:04:44;;;;;;;0.20;0.20;;;13.40;99.90;;;;;;5053231;28;20747;-59
2022/09/16 07:07:11;;;;;;;0.20;0.20;;;13.40;99.90;;;;;;5053430;28;20163;-58
2022/09/16 07:09:40;;;;;;;1.50;0.25;;;13.40;99.90;;;;;;5053176;28;20167;-59
2022/09/16 07:12:06;;;;;;;0.10;0.10;;;13.40;99.90;;;;;;5053119;28;20233;-59
2022/09/16 07:14:32;;;;;;;0.13;0.13;;;13.40;99.90;;;;;;5053113;28;20194;-58
2022/09/16 07:16:59;;;;;;;0.15;0.15;;;13.40;99.90;;;;;;5053241;28;20640;-59
2022/09/16 07:19:25;;;;;;;0.75;0.30;;;13.30;99.90;;;;;;5052856;28;20205;-59
2022/09/16 07:21:51;;;;;;;0.03;0.03;;;13.30;99.90;;;;;;5053887;28;20175;-59
2022/09/16 07:24:16;;;;;;;0.82;0.30;;;13.30;99.90;;;;;;5056793;28;20231;-58
2022/09/16 07:26:43;;;;;;;0.20;0.20;;;13.40;99.90;;;;;;5057430;28;20178;-59
2022/09/16 07:29:14;;;;;;;0.20;0.20;;;13.40;99.90;;;;;;5056970;28;20628;-58
2022/09/16 07:31:40;;;;;;;0.20;0.20;;;13.30;99.90;;;;;;5057034;28;20636;-59
2022/09/16 07:34:09;;;;;;;0.90;0.40;;;13.40;99.90;;;;;;5056875;28;20570;-58
2022/09/16 07:36:38;;;;;;;0.10;0.10;;;13.40;99.90;;;;;;5056907;28;20605;-59
2022/09/16 07:39:04;;;;;;;0.10;0.10;;;13.50;99.90;;;;;;5056567;28;20172;-59
2022/09/16 07:41:33;;;;;;;0.30;0.30;;;13.50;99.90;;;;;;5056993;28;20171;-59
2022/09/16 07:44:00;;;;;;;0.17;0.17;;;13.50;99.90;;;;;;5056147;28;20214;-59
2022/09/16 07:46:28;;;;;;;0.10;0.10;;;13.60;99.90;;;;;;5056350;28;20601;-58
2022/09/16 07:48:54;;;;;;;0.35;0.10;;;13.70;99.90;;;;;;5056450;28;20164;-59
2022/09/16 07:51:22;;;;;;;0.45;0.45;;;13.70;99.90;;;;;;5056643;28;20167;-59
2022/09/16 07:53:52;;;;;;;0.10;0.10;;;13.80;99.90;;;;;;5056528;28;20178;-59
2022/09/16 07:56:20;;;;;;;0.93;0.20;;;13.90;99.90;;;;;;5056551;28;20167;-59
2022/09/16 07:58:46;;;;;;;0.30;0.30;;;13.90;99.90;;;;;;5056573;28;20203;-58
2022/09/16 08:01:14;;;;;;;0.57;0.20;;;14.00;99.90;;;;;;5056416;28;20176;-59
2022/09/16 08:03:41;;;;;;;0.10;0.10;;;14.00;99.90;;;;;;5056246;28;20198;-58
2022/09/16 08:06:09;;;;;;;0.40;0.40;;;14.00;99.90;;;;;;5056304;28;20199;-58
2022/09/16 08:08:35;;;;;;;1.13;0.63;;;13.90;99.90;;;;;;5056247;28;20563;-58
2022/09/16 08:11:01;;;;;;;0.10;0.10;;;13.80;99.90;;;;;;5056457;28;20171;-58
2022/09/16 08:13:29;;;;;;;0.10;0.10;;;13.80;99.90;;;;;;5056248;28;20171;-58
2022/09/16 08:15:59;;;;;;;0.35;0.10;;;13.70;99.90;;;;;;5054989;28;20191;-59
2022/09/16 08:18:25;;;;;;;0.10;0.10;;;13.70;99.90;;;;;;5054959;28;20213;-59
2022/09/16 08:20:51;;;;;;;0.20;0.20;;;13.60;99.90;;;;;;5055052;28;20198;-58
2022/09/16 08:23:17;;;;;;;0.20;0.20;;;13.60;99.90;;;;;;5055022;28;20203;-59
2022/09/16 08:25:42;;;;;;;1.10;0.10;;;13.80;99.90;;;;;;5054877;28;20199;-59
2022/09/16 08:28:13;;;;;;;0.20;0.20;;;13.80;99.90;;;;;;5054716;28;20529;-59
2022/09/16 08:30:39;;;;;;;0.10;0.10;;;13.80;99.90;;;;;;5054133;28;20183;-59
2022/09/16 08:33:05;;;;;;;0.10;0.10;;;14.00;99.90;;;;;;5053108;28;20250;-58
2022/09/16 08:35:30;;;;;;;0.10;0.10;;;14.00;99.90;;;;;;5054021;28;20180;-58
2022/09/16 08:37:57;;;;;;;0.20;0.20;;;14.10;99.90;;;;;;5054370;28;20164;-58
2022/09/16 08:40:25;;;;;;;0.10;0.10;;;14.10;99.90;;;;;;5054564;28;20254;-58
2022/09/16 08:43:16;;;;;;;0.20;0.20;;;14.20;99.90;;;;;;5054559;28;20183;-58
2022/09/16 08:45:48;;;;;;;0.05;0.05;;;14.10;99.90;;;;;;5054174;28;20229;-59
2022/09/16 08:48:13;;;;;;;0.15;0.15;;;14.10;99.90;;;;;;5054751;28;20171;-59
2022/09/16 08:50:41;;;;;;;0.43;0.20;;;14.00;99.90;;;;;;5054500;28;20183;-58
2022/09/16 08:53:20;;;;;;;0.03;0.03;;;14.00;99.90;;;;;;5054820;28;20172;-59
2022/09/16 08:55:49;;;;;;;0.10;0.10;;;13.90;99.90;;;;;;5054391;28;20167;-59
2022/09/16 08:58:20;;;;;;;0.00;0.00;;;14.00;99.90;;;;;;5054222;28;20240;-58
2022/09/16 09:00:57;;;;;;;0.13;0.13;;;14.00;99.90;;;;;;5054493;28;20178;-59
2022/09/16 09:03:39;;;;;;;0.10;0.10;;;14.00;99.90;;;;;;5054434;28;20620;-59
2022/09/16 09:06:37;;;;;;;0.05;0.03;;;14.10;99.90;;;;;;5054290;28;20636;-59
2022/09/16 09:09:26;;;;;;;0.10;0.10;;;14.00;99.90;;;;;;5045943;28;20191;-59
2022/09/16 09:12:29;;;;;;;0.20;0.13;;;14.10;99.90;;;;;;5054286;28;20256;-59
2022/09/16 09:14:58;;;;;;;0.10;0.10;;;14.20;99.90;;;;;;4998985;28;1119582;-59
2022/09/16 09:18:05;;;;;;;0.20;0.15;;;14.20;99.90;;;;;;5054992;28;20174;-58
2022/09/16 09:20:39;;;;;;;0.20;0.20;;;14.40;99.90;;;;;;5013089;28;20172;-59
2022/09/16 09:23:22;;;;;;;0.20;0.20;;;14.60;99.90;;;;;;5050338;28;20266;-58
2022/09/16 09:25:57;;;;;;;0.65;0.20;;;14.80;99.90;;;;;;5055027;28;20198;-58
2022/09/16 09:28:50;;;;;;;0.10;0.10;;;14.80;99.90;;;;;;5055212;28;20189;-58
2022/09/16 09:31:31;;;;;;;0.40;0.22;;;14.90;99.90;;;;;;5054883;28;20268;-58
2022/09/16 09:34:15;;;;;;;0.75;0.28;;;14.90;99.90;;;;;;5054867;28;20228;-58
2022/09/16 09:37:26;;;;;;;0.10;0.10;;;14.70;99.90;;;;;;5054839;28;20167;-59
2022/09/16 09:40:03;;;;;;;0.20;0.10;;;14.30;99.90;;;;;;5038542;28;20184;-59
2022/09/16 09:42:44;;;;;;;0.10;0.10;;;14.00;99.90;;;;;;5054725;28;20179;-58
2022/09/16 09:45:21;;;;;;;0.45;0.05;;;13.80;99.90;;;;;;5053687;28;20242;-59
2022/09/16 09:48:14;;;;;;;0.70;0.10;;;13.70;99.90;;;;;;5054500;28;20257;-59
2022/09/16 09:50:45;;;;;;;0.10;0.10;;;13.60;99.90;;;;;;5054653;28;20163;-58
2022/09/16 09:53:13;;;;;;;0.10;0.10;;;13.60;99.90;;;;;;5054468;28;20166;-58
2022/09/16 09:55:41;;;;;;;0.10;0.10;;;13.50;99.90;;;;;;5054295;28;20226;-58
2022/09/16 09:58:33;;;;;;;0.30;0.10;;;13.50;99.90;;;;;;5054586;28;20175;-59
2022/09/16 10:01:00;;;;;;;0.10;0.10;;;13.60;99.90;;;;;;5054139;28;20625;-58
2022/09/16 10:03:27;;;;;;;0.50;0.10;;;13.50;99.90;;;;;;5054008;28;20182;-59
2022/09/16 10:05:53;;;;;;;0.15;0.15;;;13.50;99.90;;;;;;5054242;28;20544;-59
2022/09/16 10:08:32;;;;;;;0.05;0.05;;;13.50;99.90;;;;;;5054109;28;20176;-59
2022/09/16 10:11:00;;;;;;;0.20;0.20;;;13.70;99.90;;;;;;5054134;28;20167;-59
2022/09/16 10:13:28;;;;;;;0.05;0.05;;;13.90;99.90;;;;;;5053854;28;20517;-58
2022/09/16 10:16:09;;;;;;;0.13;0.13;;;14.10;99.90;;;;;;5054026;28;20222;-59
2022/09/16 10:18:35;;;;;;;0.20;0.20;;;14.40;99.90;;;;;;5054010;28;20171;-58
2022/09/16 10:21:11;;;;;;;0.10;0.10;;;14.60;99.90;;;;;;5053561;28;20609;-59
2022/09/16 10:23:38;;;;;;;0.65;0.45;;;14.70;99.90;;;;;;5052522;28;20166;-59
2022/09/16 10:26:22;;;;;;;1.30;0.65;;;14.80;99.90;;;;;;5052862;28;20215;-58
2022/09/16 10:28:59;;;;;;;0.25;0.25;;;14.30;99.90;;;;;;5053483;28;20159;-59
2022/09/16 10:31:37;;;;;;;0.10;0.10;;;14.20;99.90;;;;;;5053604;28;20163;-59
2022/09/16 10:34:11;;;;;;;0.30;0.30;;;13.90;99.90;;;;;;5053537;28;20167;-59
2022/09/16 10:36:37;;;;;;;0.17;0.17;;;13.60;99.90;;;;;;5054052;28;20622;-59
2022/09/16 10:39:03;;;;;;;0.30;0.30;;;13.40;99.90;;;;;;5053716;28;20250;-59
2022/09/16 10:41:34;;;;;;;0.30;0.30;;;13.40;99.90;;;;;;5053499;28;20505;-59
2022/09/16 10:44:03;;;;;;;1.25;0.20;;;13.60;99.90;;;;;;5053579;28;20202;-58
2022/09/16 10:46:30;;;;;;;0.10;0.10;;;13.70;99.90;;;;;;5053491;28;20207;-58
2022/09/16 10:49:00;;;;;;;0.57;0.57;;;13.90;99.90;;;;;;5053608;28;20609;-58
2022/09/16 10:51:32;;;;;;;0.50;0.30;;;14.00;99.90;;;;;;5053557;28;20301;-58
2022/09/16 10:54:04;;;;;;;0.50;0.50;;;14.10;99.90;;;;;;5053232;28;20170;-59
2022/09/16 10:56:50;;;;;;;1.45;0.40;;;14.20;99.90;;;;;;5053421;28;20256;-59
2022/09/16 10:59:17;;;;;;;0.30;0.30;;;14.40;99.90;;;;;;5053280;28;20186;-58
2022/09/16 11:02:14;;;;;;;0.20;0.20;;;14.50;99.90;;;;;;5052217;28;20176;-59
2022/09/16 11:05:00;;;;;;;0.75;0.20;;;14.70;99.90;;;;;;5046644;28;20660;-58
2022/09/16 11:07:30;;;;;;;0.30;0.30;;;14.90;99.90;;;;;;5053524;28;20199;-59
2022/09/16 11:10:26;;;;;;;0.40;0.40;;;15.10;99.90;;;;;;5053373;28;20199;-59
2022/09/16 11:13:21;;;;;;;0.30;0.30;;;15.30;99.90;;;;;;5053111;28;20199;-58
2022/09/16 11:15:49;;;;;;;0.30;0.30;;;15.90;99.90;;;;;;5053316;28;20244;-59
2022/09/16 11:18:57;;;;;;;0.28;0.28;;;16.00;99.90;;;;;;5053217;28;20228;-58
2022/09/16 11:21:47;;;;;;;0.20;0.20;;;16.00;99.90;;;;;;5053093;28;20632;-59
2022/09/16 11:24:55;;;;;;;0.20;0.20;;;16.10;99.90;;;;;;5053304;28;20191;-59
2022/09/16 11:27:47;;;;;;;0.10;0.10;;;15.90;99.90;;;;;;5051924;28;20167;-58
2022/09/16 11:30:21;;;;;;;0.30;0.30;;;15.80;99.90;;;;;;5037064;28;20575;-59
2022/09/16 11:33:05;;;;;;;0.10;0.10;;;15.30;99.90;;;;;;5053052;28;20179;-59
2022/09/16 11:36:07;;;;;;;0.28;0.20;;;15.30;99.90;;;;;;5053155;28;20232;-57
2022/09/16 11:39:08;;;;;;;0.10;0.00;;;14.90;99.90;;;;;;5052807;28;20189;-58
2022/09/16 11:41:41;;;;;;;0.13;0.13;;;14.90;99.90;;;;;;5039494;28;20700;-58
2022/09/16 11:44:25;;;;;;;0.10;0.10;;;15.20;99.90;;;;;;5053121;28;20595;-59
2022/09/16 11:47:00;;;;;;;0.40;0.40;;;15.60;99.90;;;;;;5052810;28;20563;-59
2022/09/16 11:50:15;;;;;;;0.10;0.10;;;15.50;99.90;;;;;;5052989;28;20170;-58
2022/09/16 11:53:14;;;;;;;0.40;0.40;;;15.20;99.90;;;;;;5049482;28;20640;-59
2022/09/16 11:56:10;;;;;;;0.20;0.20;;;14.90;99.90;;;;;;5051627;28;20180;-59
2022/09/16 11:59:07;;;;;;;0.28;0.25;;;14.50;99.90;;;;;;5052759;28;20282;-59
2022/09/16 12:01:43;;;;;;;0.30;0.20;;;14.10;99.90;;;;;;5052620;28;20171;-59
2022/09/16 12:04:24;;;;;;;0.00;0.00;;;13.70;99.90;;;;;;5052860;28;20190;-59
2022/09/16 12:07:18;;;;;;;0.10;0.05;;;13.10;99.90;;;;;;5052750;28;20175;-59
2022/09/16 12:09:54;;;;;;;0.20;0.10;;;13.00;99.90;;;;;;5055907;28;20174;-59
2022/09/16 12:12:24;;;;;;;0.00;0.00;;;13.20;99.90;;;;;;5056494;28;20171;-60
2022/09/16 12:15:18;;;;;;;0.10;0.10;;;13.50;99.90;;;;;;5056234;28;20191;-59
2022/09/16 12:17:52;;;;;;;0.32;0.20;;;13.90;99.90;;;;;;5037448;28;20183;-59
2022/09/16 12:20:32;;;;;;;0.00;0.00;;;14.00;99.90;;;;;;5056229;28;20262;-58
2022/09/16 12:23:08;;;;;;;0.55;0.10;;;14.10;99.90;;;;;;5056279;28;20171;-59
2022/09/16 12:25:57;;;;;;;0.20;0.20;;;14.30;99.90;;;;;;5056070;28;20194;-59
2022/09/16 12:28:30;;;;;;;0.20;0.10;;;14.40;99.90;;;;;;5056149;28;20171;-59
2022/09/16 12:31:20;;;;;;;0.00;0.00;;;14.40;99.90;;;;;;5056237;28;20168;-59
2022/09/16 12:34:00;;;;;;;0.03;0.03;;;14.60;99.90;;;;;;5055898;28;20167;-58
2022/09/16 12:36:32;;;;;;;0.05;0.00;;;14.70;99.90;;;;;;5055760;28;20177;-58
2022/09/16 12:38:59;;;;;;;0.00;0.00;;;14.70;99.90;;;;;;5055783;28;20174;-59
2022/09/16 12:41:56;;;;;;;0.20;0.20;;;14.90;99.90;;;;;;5055748;28;20304;-59
2022/09/16 12:44:42;;;;;;;0.15;0.15;;;15.00;99.90;;;;;;5053831;28;20207;-58
2022/09/16 12:47:17;;;;;;;0.45;0.20;;;15.10;99.90;;;;;;5047413;28;20593;-58
2022/09/16 12:50:17;;;;;;;0.03;0.03;;;15.10;99.90;;;;;;5055820;28;20175;-59
2022/09/16 12:52:53;;;;;;;0.00;0.00;;;14.70;99.90;;;;;;5048085;28;20510;-58
2022/09/16 12:56:07;;;;;;;0.00;0.00;;;14.60;99.90;;;;;;5055131;28;20179;-58
2022/09/16 12:58:45;;;;;;;0.47;0.05;;;14.10;99.90;;;;;;5045823;28;20330;-57
2022/09/16 13:01:19;;;;;;;1.00;0.10;;;13.40;99.90;;;;;;5055225;28;20171;-58
2022/09/16 13:03:59;;;;;;;0.10;0.03;;;13.20;99.90;;;;;;5055518;28;20171;-58
2022/09/16 13:06:34;;;;;;;0.00;0.00;;;13.10;99.90;;;;;;5055538;28;20187;-59
2022/09/16 13:09:38;;;;;;;0.10;0.10;;;13.10;99.90;;;;;;5055515;28;20175;-59
2022/09/16 13:12:20;;;;;;;0.10;0.10;;;12.90;99.90;;;;;;5013320;28;20172;-59
2022/09/16 13:14:58;;;;;;;0.05;0.05;;;12.90;99.90;;;;;;5052002;28;20215;-58
2022/09/16 13:17:32;;;;;;;0.38;0.00;;;12.80;99.90;;;;;;5055262;28;20563;-58
2022/09/16 13:20:28;;;;;;;0.00;0.00;;;12.80;99.90;;;;;;5054008;28;20174;-58
2022/09/16 13:22:54;;;;;;;0.00;0.00;;;12.80;99.90;;;;;;5055060;28;20225;-58